sensor_id;sensor_type;location;lat;lon;timestamp;temperature;humidity
21163;DHT22;10739;52.198;20.908;2023-11-21T00:00:38;0.20;99.90
21163;DHT22;10739;52.198;20.908;2023-11-21T00:03:05;0.20;99.90
21163;DHT22;10739;52.198;20.908;2023-11-21T00:05:32;0.20;99.90
21163;DHT22;10739;52.198;20.908;2023-11-21T00:08:02;0.10;99.90
21163;DHT22;10739;52.198;20.908;2023-11-21T00:10:28;0.10;99.90
21163;DHT22;10739;52.198;20.908;2023-11-21T00:12:54;0.10;99.90
21163;DHT22;10739;52.198;20.908;2023-11-21T00:15:20;0.20;99.90
21163;DHT22;10739;52.198;20.908;2023-11-21T00:17:47;0.20;99.90
21163;DHT22;10739;52.198;20.908;2023-11-21T00:20:13;0.20;99.90
21163;DHT22;10739;52.198;20.908;2023-11-21T00:22:40;0.10;99.90
21163;DHT22;10739;52.198;20.908;2023-11-21T00:25:07;0.10;99.90
21163;DHT22;10739;52.198;20.908;2023-11-21T00:27:35;0.00;99.90
21163;DHT22;10739;52.198;20.908;2023-11-21T00:30:03;0.00;99.90
21163;DHT22;10739;52.198;20.908;2023-11-21T00:32:31;0.00;99.90
21163;DHT22;10739;52.198;20.908;2023-11-21T00:34:57;0.00;99.90
21163;DHT22;10739;52.198;20.908;2023-11-21T00:37:25;0.00;99.90
21163;DHT22;10739;52.198;20.908;2023-11-21T00:39:51;0.00;99.90
21163;DHT22;10739;52.198;20.908;2023-11-21T00:42:17;-0.10;99.90
21163;DHT22;10739;52.198;20.908;2023-11-21T00:44:44;0.00;99.90
21163;DHT22;10739;52.198;20.908;2023-11-21T00:47:10;-0.10;99.90
21163;DHT22;10739;52.198;20.908;2023-11-21T00:49:36;-0.10;99.90
21163;DHT22;10739;52.198;20.908;2023-11-21T00:52:02;-0.10;99.90
21163;DHT22;10739;52.198;20.908;2023-11-21T00:54:28;-0.20;99.90
21163;DHT22;10739;52.198;20.908;2023-11-21T00:56:55;-0.30;99.90
21163;DHT22;10739;52.198;20.908;2023-11-21T00:59:22;-0.20;99.90
21163;DHT22;10739;52.198;20.908;2023-11-21T01:01:49;-0.20;99.90
21163;DHT22;10739;52.198;20.908;2023-11-21T01:04:15;-0.20;99.90
21163;DHT22;10739;52.198;20.908;2023-11-21T01:06:41;-0.20;99.90
21163;DHT22;10739;52.198;20.908;2023-11-21T01:09:08;-0.20;99.90
21163;DHT22;10739;52.198;20.908;2023-11-21T01:11:35;-0.30;99.90
21163;DHT22;10739;52.198;20.908;2023-11-21T01:14:04;-0.30;99.90
21163;DHT22;10739;52.198;20.908;2023-11-21T01:16:30;-0.30;99.90
21163;DHT22;10739;52.198;20.908;2023-11-21T01:18:59;-0.30;99.90
21163;DHT22;10739;52.198;20.908;2023-11-21T01:21:25;-0.30;99.90
21163;DHT22;10739;52.198;20.908;2023-11-21T01:23:52;-0.30;99.90
21163;DHT22;10739;52.198;20.908;2023-11-21T01:26:18;-0.30;99.90
21163;DHT22;10739;52.198;20.908;2023-11-21T01:28:44;-0.30;99.90
21163;DHT22;10739;52.198;20.908;2023-11-21T01:31:10;-0.30;99.90
21163;DHT22;10739;52.198;20.908;2023-11-21T01:33:37;-0.30;99.90
21163;DHT22;10739;52.198;20.908;2023-11-21T01:36:03;-0.20;99.90
21163;DHT22;10739;52.198;20.908;2023-11-21T01:38:31;-0.20;99.90
21163;DHT22;10739;52.198;20.908;2023-11-21T01:40:58;-0.20;99.90
21163;DHT22;10739;52.198;20.908;2023-11-21T01:43:27;-0.20;99.90
21163;DHT22;10739;52.198;20.908;2023-11-21T01:45:56;-0.30;99.90
21163;DHT22;10739;52.198;20.908;2023-11-21T01:48:24;-0.30;99.90
21163;DHT22;10739;52.198;20.908;2023-11-21T01:50:51;-0.30;99.90
21163;DHT22;10739;52.198;20.908;2023-11-21T01:53:18;-0.30;99.90
21163;DHT22;10739;52.198;20.908;2023-11-21T01:55:45;-0.30;99.90
21163;DHT22;10739;52.198;20.908;2023-11-21T01:58:12;-0.30;99.90
21163;DHT22;10739;52.198;20.908;2023-11-21T02:00:39;-0.40;99.90
21163;DHT22;10739;52.198;20.908;2023-11-21T02:03:05;-0.30;99.90
21163;DHT22;10739;52.198;20.908;2023-11-21T02:05:32;-0.30;99.90
21163;DHT22;10739;52.198;20.908;2023-11-21T02:07:59;-0.30;99.90
21163;DHT22;10739;52.198;20.908;2023-11-21T02:10:26;-0.40;99.90
21163;DHT22;10739;52.198;20.908;2023-11-21T02:12:53;-0.40;99.90
21163;DHT22;10739;52.198;20.908;2023-11-21T02:15:19;-0.60;99.90
21163;DHT22;10739;52.198;20.908;2023-11-21T02:17:47;-0.60;99.90
21163;DHT22;10739;52.198;20.908;2023-11-21T02:20:23;-0.60;99.90
21163;DHT22;10739;52.198;20.908;2023-11-21T02:22:51;-0.60;99.90
21163;DHT22;10739;52.198;20.908;2023-11-21T02:25:29;-0.60;99.90
21163;DHT22;10739;52.198;20.908;2023-11-21T02:28:01;-0.60;99.90
21163;DHT22;10739;52.198;20.908;2023-11-21T02:30:28;-0.50;99.90
21163;DHT22;10739;52.198;20.908;2023-11-21T02:32:56;-0.50;99.90
21163;DHT22;10739;52.198;20.908;2023-11-21T02:35:23;-0.60;99.90
21163;DHT22;10739;52.198;20.908;2023-11-21T02:37:52;-0.50;99.90
21163;DHT22;10739;52.198;20.908;2023-11-21T02:40:19;-0.40;99.90
21163;DHT22;10739;52.198;20.908;2023-11-21T02:42:47;-0.40;99.90
21163;DHT22;10739;52.198;20.908;2023-11-21T02:45:14;-0.40;99.90
21163;DHT22;10739;52.198;20.908;2023-11-21T02:47:43;-0.40;99.90
21163;DHT22;10739;52.198;20.908;2023-11-21T02:50:10;-0.50;99.90
21163;DHT22;10739;52.198;20.908;2023-11-21T02:52:37;-0.50;99.90
21163;DHT22;10739;52.198;20.908;2023-11-21T02:55:04;-0.50;99.90
21163;DHT22;10739;52.198;20.908;2023-11-21T02:57:31;-0.50;99.90
21163;DHT22;10739;52.198;20.908;2023-11-21T02:59:57;-0.50;99.90
21163;DHT22;10739;52.198;20.908;2023-11-21T03:02:23;-0.50;99.90
21163;DHT22;10739;52.198;20.908;2023-11-21T03:04:50;-0.60;99.90
21163;DHT22;10739;52.198;20.908;2023-11-21T03:07:16;-0.50;99.90
21163;DHT22;10739;52.198;20.908;2023-11-21T03:09:45;-0.50;99.90
21163;DHT22;10739;52.198;20.908;2023-11-21T03:12:12;-0.60;99.90
21163;DHT22;10739;52.198;20.908;2023-11-21T03:14:41;-0.50;99.90
21163;DHT22;10739;52.198;20.908;2023-11-21T03:17:07;-0.60;99.90
21163;DHT22;10739;52.198;20.908;2023-11-21T03:19:34;-0.50;99.90
21163;DHT22;10739;52.198;20.908;2023-11-21T03:22:00;-0.50;99.90
21163;DHT22;10739;52.198;20.908;2023-11-21T03:24:26;-0.60;99.90
21163;DHT22;10739;52.198;20.908;2023-11-21T03:26:53;-0.60;99.90
21163;DHT22;10739;52.198;20.908;2023-11-21T03:29:19;-0.70;99.90
21163;DHT22;10739;52.198;20.908;2023-11-21T03:31:45;-0.70;99.90
21163;DHT22;10739;52.198;20.908;2023-11-21T03:34:24;-0.60;99.90
21163;DHT22;10739;52.198;20.908;2023-11-21T03:36:54;-0.70;99.90
21163;DHT22;10739;52.198;20.908;2023-11-21T03:39:20;-0.70;99.90
21163;DHT22;10739;52.198;20.908;2023-11-21T03:41:48;-0.70;99.90
21163;DHT22;10739;52.198;20.908;2023-11-21T03:44:14;-0.70;99.90
21163;DHT22;10739;52.198;20.908;2023-11-21T03:46:41;-0.70;99.90
21163;DHT22;10739;52.198;20.908;2023-11-21T03:49:07;-0.70;99.90
21163;DHT22;10739;52.198;20.908;2023-11-21T03:51:33;-0.70;99.90
21163;DHT22;10739;52.198;20.908;2023-11-21T03:54:00;-0.70;99.90
21163;DHT22;10739;52.198;20.908;2023-11-21T03:56:26;-0.70;99.90
21163;DHT22;10739;52.198;20.908;2023-11-21T03:58:52;-0.70;99.90
21163;DHT22;10739;52.198;20.908;2023-11-21T04:01:22;-0.80;99.90
21163;DHT22;10739;52.198;20.908;2023-11-21T04:03:49;-0.80;99.90
21163;DHT22;10739;52.198;20.908;2023-11-21T04:06:17;-0.80;99.90
21163;DHT22;10739;52.198;20.908;2023-11-21T04:08:44;-0.80;99.90
21163;DHT22;10739;52.198;20.908;2023-11-21T04:11:11;-0.80;99.90
21163;DHT22;10739;52.198;20.908;2023-11-21T04:13:38;-0.80;99.90
21163;DHT22;10739;52.198;20.908;2023-11-21T04:16:06;-0.90;99.90
21163;DHT22;10739;52.198;20.908;2023-11-21T04:18:36;-0.80;99.90
21163;DHT22;10739;52.198;20.908;2023-11-21T04:21:07;-0.80;99.90
21163;DHT22;10739;52.198;20.908;2023-11-21T04:23:34;-0.80;99.90
21163;DHT22;10739;52.198;20.908;2023-11-21T04:26:01;-0.80;99.90
21163;DHT22;10739;52.198;20.908;2023-11-21T04:28:28;-0.70;99.90
21163;DHT22;10739;52.198;20.908;2023-11-21T04:30:54;-0.70;99.90
21163;DHT22;10739;52.198;20.908;2023-11-21T04:33:21;-0.80;99.90
21163;DHT22;10739;52.198;20.908;2023-11-21T04:35:48;-0.80;99.90
21163;DHT22;10739;52.198;20.908;2023-11-21T04:38:14;-0.80;99.90
21163;DHT22;10739;52.198;20.908;2023-11-21T04:40:41;-0.80;99.90
21163;DHT22;10739;52.198;20.908;2023-11-21T04:43:07;-0.80;99.90
21163;DHT22;10739;52.198;20.908;2023-11-21T04:45:34;-0.80;99.90
21163;DHT22;10739;52.198;20.908;2023-11-21T04:48:00;-0.80;99.90
21163;DHT22;10739;52.198;20.908;2023-11-21T04:50:26;-0.80;99.90
21163;DHT22;10739;52.198;20.908;2023-11-21T04:52:53;-0.80;99.90
21163;DHT22;10739;52.198;20.908;2023-11-21T04:55:19;-0.90;99.90
21163;DHT22;10739;52.198;20.908;2023-11-21T04:57:46;-0.90;99.90
21163;DHT22;10739;52.198;20.908;2023-11-21T05:00:13;-0.90;99.90
21163;DHT22;10739;52.198;20.908;2023-11-21T05:02:42;-1.00;99.90
21163;DHT22;10739;52.198;20.908;2023-11-21T05:05:09;-1.00;99.90
21163;DHT22;10739;52.198;20.908;2023-11-21T05:07:36;-1.00;99.90
21163;DHT22;10739;52.198;20.908;2023-11-21T05:10:05;-0.80;99.90
21163;DHT22;10739;52.198;20.908;2023-11-21T05:12:35;-0.90;99.90
21163;DHT22;10739;52.198;20.908;2023-11-21T05:15:05;-0.90;99.90
21163;DHT22;10739;52.198;20.908;2023-11-21T05:17:37;-0.80;99.90
21163;DHT22;10739;52.198;20.908;2023-11-21T05:20:06;-0.90;99.90
21163;DHT22;10739;52.198;20.908;2023-11-21T05:22:34;-0.90;99.90
21163;DHT22;10739;52.198;20.908;2023-11-21T05:25:02;-0.90;99.90
21163;DHT22;10739;52.198;20.908;2023-11-21T05:27:30;-0.80;99.90
21163;DHT22;10739;52.198;20.908;2023-11-21T05:30:01;-0.90;99.90
21163;DHT22;10739;52.198;20.908;2023-11-21T05:32:31;-0.90;99.90
21163;DHT22;10739;52.198;20.908;2023-11-21T05:35:01;-0.90;99.90
21163;DHT22;10739;52.198;20.908;2023-11-21T05:37:27;-0.90;99.90
21163;DHT22;10739;52.198;20.908;2023-11-21T05:39:53;-0.90;99.90
21163;DHT22;10739;52.198;20.908;2023-11-21T05:42:23;-0.90;99.90
21163;DHT22;10739;52.198;20.908;2023-11-21T05:44:49;-0.90;99.90
21163;DHT22;10739;52.198;20.908;2023-11-21T05:47:16;-0.90;99.90
21163;DHT22;10739;52.198;20.908;2023-11-21T05:49:42;-0.90;99.90
21163;DHT22;10739;52.198;20.908;2023-11-21T05:52:10;-0.90;99.90
21163;DHT22;10739;52.198;20.908;2023-11-21T05:54:37;-0.90;99.90
21163;DHT22;10739;52.198;20.908;2023-11-21T05:57:03;-0.90;99.90
21163;DHT22;10739;52.198;20.908;2023-11-21T05:59:30;-0.90;99.90
21163;DHT22;10739;52.198;20.908;2023-11-21T06:01:56;-0.90;99.90
21163;DHT22;10739;52.198;20.908;2023-11-21T06:04:22;-0.90;99.90
21163;DHT22;10739;52.198;20.908;2023-11-21T06:06:53;-1.00;99.90
21163;DHT22;10739;52.198;20.908;2023-11-21T06:09:20;-1.00;99.90
21163;DHT22;10739;52.198;20.908;2023-11-21T06:11:47;-1.00;99.90
21163;DHT22;10739;52.198;20.908;2023-11-21T06:14:13;-1.00;99.90
21163;DHT22;10739;52.198;20.908;2023-11-21T06:16:41;-1.00;99.90
21163;DHT22;10739;52.198;20.908;2023-11-21T06:19:07;-1.00;99.90
21163;DHT22;10739;52.198;20.908;2023-11-21T06:21:33;-1.10;99.90
21163;DHT22;10739;52.198;20.908;2023-11-21T06:23:59;-1.00;99.90
21163;DHT22;10739;52.198;20.908;2023-11-21T06:26:27;-0.90;99.90
21163;DHT22;10739;52.198;20.908;2023-11-21T06:28:54;-0.80;99.90
21163;DHT22;10739;52.198;20.908;2023-11-21T06:31:20;-0.80;99.90
21163;DHT22;10739;52.198;20.908;2023-11-21T06:33:48;-0.90;99.90
21163;DHT22;10739;52.198;20.908;2023-11-21T06:36:17;-0.80;99.90
21163;DHT22;10739;52.198;20.908;2023-11-21T06:38:43;-0.70;99.90
21163;DHT22;10739;52.198;20.908;2023-11-21T06:41:11;-0.70;99.90
21163;DHT22;10739;52.198;20.908;2023-11-21T06:43:41;-0.70;99.90
21163;DHT22;10739;52.198;20.908;2023-11-21T06:46:07;-0.70;99.90
21163;DHT22;10739;52.198;20.908;2023-11-21T06:48:34;-0.80;99.90
21163;DHT22;10739;52.198;20.908;2023-11-21T06:51:00;-0.80;99.90
21163;DHT22;10739;52.198;20.908;2023-11-21T06:53:26;-0.90;99.90
21163;DHT22;10739;52.198;20.908;2023-11-21T06:55:52;-0.90;99.90
21163;DHT22;10739;52.198;20.908;2023-11-21T06:58:19;-1.00;99.90
21163;DHT22;10739;52.198;20.908;2023-11-21T07:00:45;-1.00;99.90
21163;DHT22;10739;52.198;20.908;2023-11-21T07:03:14;-1.00;99.90
21163;DHT22;10739;52.198;20.908;2023-11-21T07:05:40;-1.00;99.90
21163;DHT22;10739;52.198;20.908;2023-11-21T07:08:07;-1.00;99.90
21163;DHT22;10739;52.198;20.908;2023-11-21T07:10:33;-1.00;99.90
21163;DHT22;10739;52.198;20.908;2023-11-21T07:13:00;-1.00;99.90
21163;DHT22;10739;52.198;20.908;2023-11-21T07:15:27;-0.90;99.90
21163;DHT22;10739;52.198;20.908;2023-11-21T07:17:54;-0.90;99.90
21163;DHT22;10739;52.198;20.908;2023-11-21T07:20:20;-0.80;99.90
21163;DHT22;10739;52.198;20.908;2023-11-21T07:22:47;-0.90;99.90
21163;DHT22;10739;52.198;20.908;2023-11-21T07:25:13;-0.80;99.90
21163;DHT22;10739;52.198;20.908;2023-11-21T07:27:40;-0.80;99.90
21163;DHT22;10739;52.198;20.908;2023-11-21T07:30:07;-0.80;99.90
21163;DHT22;10739;52.198;20.908;2023-11-21T07:32:35;-0.80;99.90
21163;DHT22;10739;52.198;20.908;2023-11-21T07:35:05;-0.90;99.90
21163;DHT22;10739;52.198;20.908;2023-11-21T07:37:33;-0.80;99.90
21163;DHT22;10739;52.198;20.908;2023-11-21T07:40:00;-0.80;99.90
21163;DHT22;10739;52.198;20.908;2023-11-21T07:42:26;-0.80;99.90
21163;DHT22;10739;52.198;20.908;2023-11-21T07:44:53;-0.80;99.90
21163;DHT22;10739;52.198;20.908;2023-11-21T07:47:19;-0.80;99.90
21163;DHT22;10739;52.198;20.908;2023-11-21T07:49:45;-0.80;99.90
21163;DHT22;10739;52.198;20.908;2023-11-21T07:52:13;-0.80;99.90
21163;DHT22;10739;52.198;20.908;2023-11-21T07:54:42;-0.90;99.90
21163;DHT22;10739;52.198;20.908;2023-11-21T07:57:08;-0.90;99.90
21163;DHT22;10739;52.198;20.908;2023-11-21T07:59:34;-1.00;99.90
21163;DHT22;10739;52.198;20.908;2023-11-21T08:02:00;-0.90;99.90
21163;DHT22;10739;52.198;20.908;2023-11-21T08:04:26;-0.80;99.90
21163;DHT22;10739;52.198;20.908;2023-11-21T08:06:53;-0.80;99.90
21163;DHT22;10739;52.198;20.908;2023-11-21T08:09:19;-0.80;99.90
21163;DHT22;10739;52.198;20.908;2023-11-21T08:11:45;-0.80;99.90
21163;DHT22;10739;52.198;20.908;2023-11-21T08:14:12;-0.80;99.90
21163;DHT22;10739;52.198;20.908;2023-11-21T08:16:38;-0.80;99.90
21163;DHT22;10739;52.198;20.908;2023-11-21T08:19:04;-0.80;99.90
21163;DHT22;10739;52.198;20.908;2023-11-21T08:21:31;-0.70;99.90
21163;DHT22;10739;52.198;20.908;2023-11-21T08:23:58;-0.70;99.90
21163;DHT22;10739;52.198;20.908;2023-11-21T08:26:26;-0.70;99.90
21163;DHT22;10739;52.198;20.908;2023-11-21T08:28:52;-0.80;99.90
21163;DHT22;10739;52.198;20.908;2023-11-21T08:31:24;-0.80;99.90
21163;DHT22;10739;52.198;20.908;2023-11-21T08:33:51;-0.80;99.90
21163;DHT22;10739;52.198;20.908;2023-11-21T08:36:23;-0.80;99.90
21163;DHT22;10739;52.198;20.908;2023-11-21T08:38:50;-0.80;99.90
21163;DHT22;10739;52.198;20.908;2023-11-21T08:41:20;-0.80;99.90
21163;DHT22;10739;52.198;20.908;2023-11-21T08:43:50;-0.80;99.90
21163;DHT22;10739;52.198;20.908;2023-11-21T08:46:17;-0.60;99.90
21163;DHT22;10739;52.198;20.908;2023-11-21T08:48:44;-0.70;99.90
21163;DHT22;10739;52.198;20.908;2023-11-21T08:51:11;-0.70;99.90
21163;DHT22;10739;52.198;20.908;2023-11-21T08:53:38;-0.70;99.90
21163;DHT22;10739;52.198;20.908;2023-11-21T08:56:04;-0.70;99.90
21163;DHT22;10739;52.198;20.908;2023-11-21T08:58:31;-0.70;99.90
21163;DHT22;10739;52.198;20.908;2023-11-21T09:00:58;-0.70;99.90
21163;DHT22;10739;52.198;20.908;2023-11-21T09:03:24;-0.70;99.90
21163;DHT22;10739;52.198;20.908;2023-11-21T09:05:51;-0.70;99.90
21163;DHT22;10739;52.198;20.908;2023-11-21T09:08:17;-0.70;99.90
21163;DHT22;10739;52.198;20.908;2023-11-21T09:10:43;-0.60;99.90
21163;DHT22;10739;52.198;20.908;2023-11-21T09:13:13;-0.70;99.90
21163;DHT22;10739;52.198;20.908;2023-11-21T09:15:39;-0.70;99.90
21163;DHT22;10739;52.198;20.908;2023-11-21T09:18:06;-0.70;99.90
21163;DHT22;10739;52.198;20.908;2023-11-21T09:20:32;-0.70;99.90
21163;DHT22;10739;52.198;20.908;2023-11-21T09:22:58;-0.60;99.90
21163;DHT22;10739;52.198;20.908;2023-11-21T09:25:24;-0.70;99.90
21163;DHT22;10739;52.198;20.908;2023-11-21T09:27:51;-0.60;99.90
21163;DHT22;10739;52.198;20.908;2023-11-21T09:30:17;-0.60;99.90
21163;DHT22;10739;52.198;20.908;2023-11-21T09:32:43;-0.60;99.90
21163;DHT22;10739;52.198;20.908;2023-11-21T09:35:11;-0.50;99.90
21163;DHT22;10739;52.198;20.908;2023-11-21T09:37:39;-0.50;99.90
21163;DHT22;10739;52.198;20.908;2023-11-21T09:40:10;-0.40;99.90
21163;DHT22;10739;52.198;20.908;2023-11-21T09:42:43;-0.50;99.90
21163;DHT22;10739;52.198;20.908;2023-11-21T09:45:24;-0.50;99.90
21163;DHT22;10739;52.198;20.908;2023-11-21T09:47:53;-0.40;99.90
21163;DHT22;10739;52.198;20.908;2023-11-21T09:50:24;-0.40;99.90
21163;DHT22;10739;52.198;20.908;2023-11-21T09:55:52;-0.40;99.90
21163;DHT22;10739;52.198;20.908;2023-11-21T09:58:20;-0.40;99.90
21163;DHT22;10739;52.198;20.908;2023-11-21T10:00:49;-0.40;99.90
21163;DHT22;10739;52.198;20.908;2023-11-21T10:03:19;-0.30;99.90
21163;DHT22;10739;52.198;20.908;2023-11-21T10:05:46;-0.30;99.90
21163;DHT22;10739;52.198;20.908;2023-11-21T10:08:15;-0.30;99.90
21163;DHT22;10739;52.198;20.908;2023-11-21T10:10:46;-0.20;99.90
21163;DHT22;10739;52.198;20.908;2023-11-21T10:13:15;-0.20;99.90
21163;DHT22;10739;52.198;20.908;2023-11-21T10:15:49;-0.10;99.90
21163;DHT22;10739;52.198;20.908;2023-11-21T10:18:19;-0.10;99.90
21163;DHT22;10739;52.198;20.908;2023-11-21T10:20:48;0.00;99.90
21163;DHT22;10739;52.198;20.908;2023-11-21T10:23:19;0.00;99.90
21163;DHT22;10739;52.198;20.908;2023-11-21T10:25:47;0.00;99.90
21163;DHT22;10739;52.198;20.908;2023-11-21T10:28:15;0.00;99.90
21163;DHT22;10739;52.198;20.908;2023-11-21T10:30:41;0.00;99.90
21163;DHT22;10739;52.198;20.908;2023-11-21T10:33:08;-0.10;99.90
21163;DHT22;10739;52.198;20.908;2023-11-21T10:38:13;0.10;99.90
21163;DHT22;10739;52.198;20.908;2023-11-21T10:40:42;0.10;99.90
21163;DHT22;10739;52.198;20.908;2023-11-21T10:43:13;0.10;99.90
21163;DHT22;10739;52.198;20.908;2023-11-21T10:45:43;0.10;99.90
21163;DHT22;10739;52.198;20.908;2023-11-21T10:48:14;0.10;99.90
21163;DHT22;10739;52.198;20.908;2023-11-21T10:50:42;0.10;99.90
21163;DHT22;10739;52.198;20.908;2023-11-21T10:53:13;0.10;99.90
21163;DHT22;10739;52.198;20.908;2023-11-21T10:55:39;0.00;99.90
21163;DHT22;10739;52.198;20.908;2023-11-21T10:58:06;0.00;99.90
21163;DHT22;10739;52.198;20.908;2023-11-21T11:00:34;0.10;99.90
21163;DHT22;10739;52.198;20.908;2023-11-21T11:03:00;0.10;99.90
21163;DHT22;10739;52.198;20.908;2023-11-21T11:05:28;0.10;99.90
21163;DHT22;10739;52.198;20.908;2023-11-21T11:08:08;0.00;99.90
21163;DHT22;10739;52.198;20.908;2023-11-21T11:10:38;0.00;99.90
21163;DHT22;10739;52.198;20.908;2023-11-21T11:13:07;0.00;99.90
21163;DHT22;10739;52.198;20.908;2023-11-21T11:15:33;0.00;99.90
21163;DHT22;10739;52.198;20.908;2023-11-21T11:18:00;-0.10;99.90
21163;DHT22;10739;52.198;20.908;2023-11-21T11:20:35;-0.10;99.90
21163;DHT22;10739;52.198;20.908;2023-11-21T11:34:36;-0.20;99.90
21163;DHT22;10739;52.198;20.908;2023-11-21T11:37:21;-0.20;99.90
21163;DHT22;10739;52.198;20.908;2023-11-21T11:39:49;-0.20;99.90
21163;DHT22;10739;52.198;20.908;2023-11-21T11:42:21;-0.20;99.90
21163;DHT22;10739;52.198;20.908;2023-11-21T11:44:50;-0.10;99.90
21163;DHT22;10739;52.198;20.908;2023-11-21T11:47:22;-0.10;99.90
21163;DHT22;10739;52.198;20.908;2023-11-21T11:50:10;-0.20;99.90
21163;DHT22;10739;52.198;20.908;2023-11-21T11:52:52;-0.30;99.90
21163;DHT22;10739;52.198;20.908;2023-11-21T11:55:22;-0.30;99.90
21163;DHT22;10739;52.198;20.908;2023-11-21T11:57:54;-0.20;99.90
21163;DHT22;10739;52.198;20.908;2023-11-21T12:02:56;-0.20;99.90
21163;DHT22;10739;52.198;20.908;2023-11-21T12:05:26;-0.20;99.90
21163;DHT22;10739;52.198;20.908;2023-11-21T12:08:00;-0.30;99.90
21163;DHT22;10739;52.198;20.908;2023-11-21T12:10:32;-0.30;99.90
21163;DHT22;10739;52.198;20.908;2023-11-21T12:13:03;-0.30;99.90
21163;DHT22;10739;52.198;20.908;2023-11-21T12:15:39;-0.20;99.90
21163;DHT22;10739;52.198;20.908;2023-11-21T12:18:07;-0.20;99.90
21163;DHT22;10739;52.198;20.908;2023-11-21T12:20:34;-0.20;99.90
21163;DHT22;10739;52.198;20.908;2023-11-21T12:23:05;-0.30;99.90
21163;DHT22;10739;52.198;20.908;2023-11-21T12:25:32;-0.30;99.90
21163;DHT22;10739;52.198;20.908;2023-11-21T12:28:00;-0.30;99.90
21163;DHT22;10739;52.198;20.908;2023-11-21T12:30:29;-0.30;99.90
21163;DHT22;10739;52.198;20.908;2023-11-21T12:32:59;-0.20;99.90
21163;DHT22;10739;52.198;20.908;2023-11-21T12:35:32;-0.20;99.90
21163;DHT22;10739;52.198;20.908;2023-11-21T12:38:04;-0.20;99.90
21163;DHT22;10739;52.198;20.908;2023-11-21T12:40:31;-0.20;99.90
21163;DHT22;10739;52.198;20.908;2023-11-21T12:42:59;-0.30;99.90
21163;DHT22;10739;52.198;20.908;2023-11-21T12:45:30;-0.30;99.90
21163;DHT22;10739;52.198;20.908;2023-11-21T12:48:01;-0.40;99.90
21163;DHT22;10739;52.198;20.908;2023-11-21T12:50:33;-0.40;99.90
21163;DHT22;10739;52.198;20.908;2023-11-21T12:53:12;-0.40;99.90
21163;DHT22;10739;52.198;20.908;2023-11-21T12:55:39;-0.40;99.90
21163;DHT22;10739;52.198;20.908;2023-11-21T12:58:08;-0.40;99.90
21163;DHT22;10739;52.198;20.908;2023-11-21T13:00:47;-0.40;99.90
21163;DHT22;10739;52.198;20.908;2023-11-21T13:03:16;-0.40;99.90
21163;DHT22;10739;52.198;20.908;2023-11-21T13:05:48;-0.40;99.90
21163;DHT22;10739;52.198;20.908;2023-11-21T13:08:16;-0.50;99.90
21163;DHT22;10739;52.198;20.908;2023-11-21T13:10:49;-0.40;99.90
21163;DHT22;10739;52.198;20.908;2023-11-21T13:13:17;-0.40;99.90
21163;DHT22;10739;52.198;20.908;2023-11-21T13:15:48;-0.50;99.90
21163;DHT22;10739;52.198;20.908;2023-11-21T13:18:25;-0.50;99.90
21163;DHT22;10739;52.198;20.908;2023-11-21T13:20:55;-0.40;99.90
21163;DHT22;10739;52.198;20.908;2023-11-21T13:23:24;-0.50;99.90
21163;DHT22;10739;52.198;20.908;2023-11-21T13:25:51;-0.50;99.90
21163;DHT22;10739;52.198;20.908;2023-11-21T13:28:18;-0.40;99.90
21163;DHT22;10739;52.198;20.908;2023-11-21T13:30:48;-0.50;99.90
21163;DHT22;10739;52.198;20.908;2023-11-21T13:33:18;-0.40;99.90
21163;DHT22;10739;52.198;20.908;2023-11-21T13:35:48;-0.30;99.90
21163;DHT22;10739;52.198;20.908;2023-11-21T13:38:17;-0.30;99.90
21163;DHT22;10739;52.198;20.908;2023-11-21T13:40:49;-0.40;99.90
21163;DHT22;10739;52.198;20.908;2023-11-21T13:43:22;-0.40;99.90
21163;DHT22;10739;52.198;20.908;2023-11-21T13:45:52;-0.40;99.90
21163;DHT22;10739;52.198;20.908;2023-11-21T13:48:38;-0.40;99.90
21163;DHT22;10739;52.198;20.908;2023-11-21T13:51:09;-0.40;99.90
21163;DHT22;10739;52.198;20.908;2023-11-21T13:53:47;-0.40;99.90
21163;DHT22;10739;52.198;20.908;2023-11-21T13:56:16;-0.40;99.90
21163;DHT22;10739;52.198;20.908;2023-11-21T13:58:46;-0.50;99.90
21163;DHT22;10739;52.198;20.908;2023-11-21T14:01:23;-0.50;99.90
21163;DHT22;10739;52.198;20.908;2023-11-21T14:04:00;-0.50;99.90
21163;DHT22;10739;52.198;20.908;2023-11-21T14:06:49;-0.50;99.90
21163;DHT22;10739;52.198;20.908;2023-11-21T14:09:22;-0.50;99.90
21163;DHT22;10739;52.198;20.908;2023-11-21T14:11:59;-0.60;99.90
21163;DHT22;10739;52.198;20.908;2023-11-21T14:14:27;-0.60;99.90
21163;DHT22;10739;52.198;20.908;2023-11-21T14:16:54;-0.70;99.90
21163;DHT22;10739;52.198;20.908;2023-11-21T14:19:24;-0.60;99.90
21163;DHT22;10739;52.198;20.908;2023-11-21T14:21:57;-0.60;99.90
21163;DHT22;10739;52.198;20.908;2023-11-21T14:24:24;-0.60;99.90
21163;DHT22;10739;52.198;20.908;2023-11-21T14:26:51;-0.60;99.90
21163;DHT22;10739;52.198;20.908;2023-11-21T14:29:18;-0.70;99.90
21163;DHT22;10739;52.198;20.908;2023-11-21T14:31:49;-0.70;99.90
21163;DHT22;10739;52.198;20.908;2023-11-21T14:34:17;-0.70;99.90
21163;DHT22;10739;52.198;20.908;2023-11-21T14:36:44;-0.70;99.90
21163;DHT22;10739;52.198;20.908;2023-11-21T14:39:11;-0.70;99.90
21163;DHT22;10739;52.198;20.908;2023-11-21T14:41:49;-0.70;99.90
21163;DHT22;10739;52.198;20.908;2023-11-21T14:44:16;-0.70;99.90
21163;DHT22;10739;52.198;20.908;2023-11-21T14:46:43;-0.60;99.90
21163;DHT22;10739;52.198;20.908;2023-11-21T14:49:15;-0.70;99.90
21163;DHT22;10739;52.198;20.908;2023-11-21T14:51:54;-0.80;99.90
21163;DHT22;10739;52.198;20.908;2023-11-21T14:54:35;-0.80;99.90
21163;DHT22;10739;52.198;20.908;2023-11-21T14:57:14;-0.80;99.90
21163;DHT22;10739;52.198;20.908;2023-11-21T14:59:47;-0.80;99.90
21163;DHT22;10739;52.198;20.908;2023-11-21T15:02:19;-0.80;99.90
21163;DHT22;10739;52.198;20.908;2023-11-21T15:05:09;-0.80;99.90
21163;DHT22;10739;52.198;20.908;2023-11-21T15:07:56;-0.80;99.90
21163;DHT22;10739;52.198;20.908;2023-11-21T15:10:51;-0.90;99.90
21163;DHT22;10739;52.198;20.908;2023-11-21T15:13:23;-0.80;99.90
21163;DHT22;10739;52.198;20.908;2023-11-21T15:15:52;-0.80;99.90
21163;DHT22;10739;52.198;20.908;2023-11-21T15:18:26;-0.80;99.90
21163;DHT22;10739;52.198;20.908;2023-11-21T15:20:53;-0.80;99.90
21163;DHT22;10739;52.198;20.908;2023-11-21T15:23:23;-0.80;99.90
21163;DHT22;10739;52.198;20.908;2023-11-21T15:25:49;-0.80;99.90
21163;DHT22;10739;52.198;20.908;2023-11-21T15:28:16;-0.90;99.90
21163;DHT22;10739;52.198;20.908;2023-11-21T15:30:45;-0.90;99.90
21163;DHT22;10739;52.198;20.908;2023-11-21T15:33:15;-1.00;99.90
21163;DHT22;10739;52.198;20.908;2023-11-21T15:35:41;-1.00;99.90
21163;DHT22;10739;52.198;20.908;2023-11-21T15:38:08;-1.00;99.90
21163;DHT22;10739;52.198;20.908;2023-11-21T15:40:34;-1.00;99.90
21163;DHT22;10739;52.198;20.908;2023-11-21T15:43:01;-1.00;99.90
21163;DHT22;10739;52.198;20.908;2023-11-21T15:45:29;-0.90;99.90